Time;durP1;ratioP1;P1;durP2;ratioP2;P2;SDS_P1;SDS_P2;PMS_P1;PMS_P2;Temp;Humidity;BMP_temperature;BMP_pressure;BME280_temperature;BME280_humidity;BME280_pressure;Samples;Min_cycle;Max_cycle;Signal;HPM_P1;HPM_P2
2022/03/19 00:00:58;;;;;;;71.90;54.90;;;5.60;99.90;;;6.18;82.61;100046.22;5190124;28;20226;-58
2022/03/19 00:03:32;;;;;;;75.40;53.17;;;5.60;99.90;;;6.01;82.89;100045.97;5184917;28;20610;-55
2022/03/19 00:06:05;;;;;;;75.73;54.93;;;5.60;99.90;;;6.05;83.04;100053.22;5188268;28;20624;-56
2022/03/19 00:08:39;;;;;;;69.83;54.27;;;5.50;99.90;;;6.03;82.87;100063.19;5190373;28;20214;-57
2022/03/19 00:11:12;;;;;;;76.97;55.07;;;5.50;99.90;;;6.04;83.14;100065.00;5186609;28;20548;-57
2022/03/19 00:13:45;;;;;;;73.53;54.43;;;5.50;99.90;;;6.09;83.06;100057.88;5191017;28;20210;-57
2022/03/19 00:16:18;;;;;;;76.47;55.03;;;5.50;99.90;;;6.03;83.28;100059.75;5187316;28;20206;-56
2022/03/19 00:18:52;;;;;;;75.10;54.73;;;5.50;99.90;;;5.99;83.33;100061.06;5196512;28;20245;-58
2022/03/19 00:21:25;;;;;;;71.80;53.27;;;5.40;99.90;;;6.05;82.57;100063.38;5183705;28;20222;-58
2022/03/19 00:24:01;;;;;;;68.47;54.10;;;5.50;99.90;;;6.18;82.29;100056.38;5195012;28;20685;-56
2022/03/19 00:26:34;;;;;;;72.57;53.00;;;5.60;99.90;;;5.97;82.42;100051.47;5195030;28;20193;-57
2022/03/19 00:29:08;;;;;;;70.93;52.57;;;5.50;99.90;;;6.08;82.08;100048.47;5187950;28;20221;-58
2022/03/19 00:31:41;;;;;;;72.20;53.70;;;5.40;99.90;;;5.97;82.55;100052.38;5188060;28;20282;-58
2022/03/19 00:34:14;;;;;;;70.90;53.60;;;5.40;99.90;;;5.88;82.91;100052.22;5187159;28;20548;-56
2022/03/19 00:36:47;;;;;;;72.77;54.47;;;5.40;99.90;;;5.91;82.76;100055.84;5188021;28;20571;-57
2022/03/19 00:39:21;;;;;;;69.37;51.63;;;5.40;99.90;;;5.79;83.18;100048.66;5191751;28;20226;-58
2022/03/19 00:41:54;;;;;;;68.57;53.47;;;5.30;99.90;;;5.93;82.44;100051.84;5187636;28;20744;-58
2022/03/19 00:44:28;;;;;;;69.07;51.97;;;5.40;99.90;;;5.80;83.04;100045.38;5187366;28;20232;-58
2022/03/19 00:47:01;;;;;;;70.13;51.60;;;5.40;99.90;;;5.81;83.17;100042.13;5197154;28;20285;-58
2022/03/19 00:49:34;;;;;;;68.20;52.33;;;5.30;99.90;;;5.97;81.48;100032.06;5191113;28;20222;-57
2022/03/19 00:52:07;;;;;;;69.53;52.50;;;5.40;99.90;;;5.96;81.40;100029.38;5187415;28;20560;-57
2022/03/19 00:54:41;;;;;;;66.80;53.60;;;5.40;99.90;;;5.90;81.83;100036.28;5184267;28;20213;-57
2022/03/19 00:57:15;;;;;;;71.53;52.83;;;5.40;99.90;;;5.79;81.79;100033.44;5187393;28;20220;-57
2022/03/19 00:59:48;;;;;;;72.20;52.97;;;5.30;99.90;;;5.81;82.10;100032.00;5199295;28;20305;-57
2022/03/19 01:02:21;;;;;;;69.43;52.97;;;5.30;99.90;;;5.81;82.79;100033.63;5194279;28;20214;-57
2022/03/19 01:04:54;;;;;;;69.77;53.10;;;5.30;99.90;;;5.86;81.49;100030.84;5181822;28;20206;-57
2022/03/19 01:07:27;;;;;;;70.93;53.13;;;5.40;99.90;;;5.80;81.78;100029.25;5182951;28;20226;-57
2022/03/19 01:10:02;;;;;;;67.60;52.20;;;5.40;99.90;;;5.80;81.90;100031.81;5189658;28;20219;-57
2022/03/19 01:12:35;;;;;;;72.97;53.70;;;5.40;99.90;;;5.69;81.83;100017.91;5185942;28;20212;-54
2022/03/19 01:15:10;;;;;;;69.97;54.13;;;5.40;99.90;;;5.68;82.05;100020.31;5185669;28;20639;-58
2022/03/19 01:17:43;;;;;;;69.17;52.70;;;5.40;99.90;;;5.68;81.99;100021.19;5188101;28;20194;-57
2022/03/19 01:20:18;;;;;;;67.70;52.93;;;5.30;99.90;;;5.65;81.99;100018.31;5185342;28;20230;-57
2022/03/19 01:22:52;;;;;;;69.60;54.00;;;5.30;99.90;;;5.61;82.74;100027.25;5183672;28;20670;-56
2022/03/19 01:25:27;;;;;;;66.73;50.77;;;5.20;99.90;;;5.63;82.25;100014.72;5187711;28;20198;-56
2022/03/19 01:28:00;;;;;;;67.73;52.10;;;5.20;99.90;;;5.74;81.33;100018.44;5185861;28;20546;-58
2022/03/19 01:30:34;;;;;;;71.07;53.07;;;5.20;99.90;;;5.79;81.28;100013.16;5185455;28;20195;-56
2022/03/19 01:33:07;;;;;;;70.07;53.03;;;5.30;99.90;;;5.71;81.53;100013.03;5189738;28;20644;-57
2022/03/19 01:35:40;;;;;;;69.23;52.97;;;5.30;99.90;;;5.68;81.15;100016.13;5188039;28;20207;-57
2022/03/19 01:38:13;;;;;;;65.57;51.00;;;5.30;99.90;;;5.70;81.52;100007.06;5186938;28;20200;-57
2022/03/19 01:40:48;;;;;;;65.07;51.77;;;5.30;99.90;;;5.67;81.78;100011.81;5183251;28;20230;-58
2022/03/19 01:43:21;;;;;;;63.27;50.83;;;5.20;99.90;;;5.69;81.38;100002.69;5189400;28;20203;-58
2022/03/19 01:45:54;;;;;;;67.60;51.73;;;5.30;99.90;;;5.71;81.47;100013.94;5186980;28;20204;-58
2022/03/19 01:48:27;;;;;;;65.87;51.00;;;5.20;99.90;;;5.81;80.86;100006.63;5185556;28;20231;-58
2022/03/19 01:51:00;;;;;;;70.40;51.13;;;5.40;99.90;;;5.62;81.21;100011.28;5184151;28;20199;-58
2022/03/19 01:53:33;;;;;;;66.23;50.80;;;5.30;99.90;;;5.56;81.84;99999.56;5182963;28;20206;-59
2022/03/19 01:56:09;;;;;;;66.97;50.27;;;5.20;99.90;;;5.61;81.82;99999.34;5180914;28;20208;-57
2022/03/19 01:58:42;;;;;;;66.30;50.37;;;5.20;99.90;;;5.60;81.59;99983.94;5188585;28;20214;-58
2022/03/19 02:01:15;;;;;;;66.60;50.60;;;5.10;99.90;;;5.58;81.58;99991.38;5184017;28;20744;-59
2022/03/19 02:03:49;;;;;;;65.67;49.73;;;5.10;99.90;;;5.68;80.83;100000.91;5184734;28;20242;-59
2022/03/19 02:06:26;;;;;;;64.93;49.67;;;5.20;99.90;;;5.70;80.49;99996.03;5187745;28;20675;-59
2022/03/19 02:09:00;;;;;;;65.70;50.57;;;5.20;99.90;;;5.70;80.85;99988.41;5185821;28;20233;-59
2022/03/19 02:11:36;;;;;;;64.77;50.43;;;5.10;99.90;;;5.68;80.32;99988.22;5183475;28;20200;-59
2022/03/19 02:14:09;;;;;;;64.63;49.90;;;5.10;99.90;;;5.79;80.18;99986.88;5186098;28;20204;-57
2022/03/19 02:16:42;;;;;;;68.27;50.50;;;5.30;99.90;;;5.68;79.96;99989.88;5178873;28;20206;-57
2022/03/19 02:19:16;;;;;;;61.37;50.23;;;5.20;99.90;;;5.64;80.12;99994.59;5185883;28;20233;-59
2022/03/19 02:21:51;;;;;;;61.67;49.40;;;5.10;99.90;;;5.56;80.72;99986.88;5184259;28;20554;-58
2022/03/19 02:27:16;;;;;;;60.70;49.47;;;5.10;99.90;;;5.52;80.91;99987.25;5183450;28;20210;-58
2022/03/19 02:29:49;;;;;;;62.57;49.80;;;5.00;99.90;;;5.81;79.26;99988.84;5182028;28;20229;-58
2022/03/19 02:32:22;;;;;;;62.20;49.70;;;5.20;99.90;;;5.72;78.91;99984.38;5183056;28;20680;-59
2022/03/19 02:34:57;;;;;;;65.17;49.63;;;5.20;99.90;;;5.61;79.87;99979.03;5180336;28;20204;-58
2022/03/19 02:37:39;;;;;;;60.83;48.77;;;5.10;99.90;;;5.47;80.25;99985.88;5182523;28;20677;-58
2022/03/19 02:40:16;;;;;;;63.13;49.57;;;5.10;99.90;;;5.60;79.52;99971.25;5182426;28;20240;-58
2022/03/19 02:42:51;;;;;;;62.90;50.00;;;5.10;99.90;;;5.59;79.66;99977.06;5180409;28;20244;-58
2022/03/19 02:45:25;;;;;;;62.47;49.00;;;5.00;99.90;;;5.52;80.14;99972.03;5177668;28;20285;-58
2022/03/19 02:47:58;;;;;;;62.53;48.83;;;5.00;99.90;;;5.52;79.97;99975.50;5182474;28;20199;-57
2022/03/19 02:50:35;;;;;;;63.77;49.57;;;5.00;99.90;;;5.48;80.20;99988.56;5181939;28;20681;-57
2022/03/19 02:53:10;;;;;;;62.73;48.43;;;5.00;99.90;;;5.60;79.21;99973.78;5182239;28;20235;-58
2022/03/19 02:55:46;;;;;;;62.50;50.47;;;5.10;99.90;;;5.57;79.36;99981.06;5184234;28;20643;-56
2022/03/19 02:58:19;;;;;;;66.00;50.27;;;5.10;99.90;;;5.59;78.97;99972.00;5184601;28;20231;-57
2022/03/19 03:00:52;;;;;;;63.73;48.60;;;5.00;99.90;;;5.57;79.02;99970.91;5185376;28;20206;-58
2022/03/19 03:03:26;;;;;;;61.87;48.40;;;5.10;99.90;;;5.43;80.48;99975.34;5190773;28;20762;-57
2022/03/19 03:05:59;;;;;;;64.43;48.90;;;5.00;99.90;;;5.43;79.99;99970.28;5184722;28;20249;-59
2022/03/19 03:08:32;;;;;;;60.27;46.80;;;4.90;99.90;;;5.48;79.84;99972.44;5185783;28;20248;-58
2022/03/19 03:11:06;;;;;;;65.50;48.37;;;4.90;99.90;;;5.37;80.13;99969.59;5184726;28;20217;-58
2022/03/19 03:13:39;;;;;;;61.03;48.17;;;4.80;99.90;;;5.39;79.99;99965.63;5184700;28;20199;-58
2022/03/19 03:16:12;;;;;;;61.00;48.73;;;4.80;99.90;;;5.39;80.04;99974.84;5184874;28;20217;-58
2022/03/19 03:18:46;;;;;;;62.60;49.37;;;4.80;99.90;;;5.31;80.17;99968.03;5184225;28;20222;-58
2022/03/19 03:21:19;;;;;;;61.40;48.70;;;4.80;99.90;;;5.23;80.24;99974.75;5180438;28;20210;-58
2022/03/19 03:23:52;;;;;;;64.60;48.57;;;4.70;99.90;;;5.26;80.86;99971.69;5192525;28;20561;-59
2022/03/19 03:26:27;;;;;;;61.03;46.27;;;4.70;99.90;;;5.20;80.51;99970.25;5187888;28;20196;-57
2022/03/19 03:29:00;;;;;;;62.63;50.47;;;4.70;99.90;;;5.18;80.48;99973.38;5186697;28;20228;-58
2022/03/19 03:31:34;;;;;;;61.90;49.00;;;4.70;99.90;;;5.19;80.06;99971.00;5188902;28;20567;-57
2022/03/19 03:34:07;;;;;;;62.23;47.77;;;4.70;99.90;;;5.25;79.89;99967.34;5186258;28;20205;-58
2022/03/19 03:36:40;;;;;;;63.67;48.70;;;4.70;99.90;;;5.25;79.69;99970.78;5187719;28;20204;-57
2022/03/19 03:39:13;;;;;;;64.87;49.27;;;4.70;99.90;;;5.34;79.54;99969.25;5187704;28;20226;-58
2022/03/19 03:41:48;;;;;;;59.23;48.10;;;4.70;99.90;;;5.34;79.20;99964.19;5184510;28;20222;-58
2022/03/19 03:44:21;;;;;;;61.83;47.80;;;4.80;99.90;;;5.28;79.10;99953.38;5192587;28;20197;-57
2022/03/19 03:46:54;;;;;;;64.23;50.13;;;4.80;99.90;;;5.24;79.87;99951.25;5194705;28;20208;-57
2022/03/19 03:49:28;;;;;;;57.67;46.33;;;4.80;99.90;;;5.24;79.24;99953.78;5187778;28;20274;-58
2022/03/19 03:52:01;;;;;;;64.00;48.20;;;4.70;99.90;;;5.19;79.43;99960.84;5194728;28;20223;-58
2022/03/19 03:54:34;;;;;;;61.47;46.90;;;4.70;99.90;;;5.20;79.01;99949.06;5188030;28;20206;-58
2022/03/19 03:57:08;;;;;;;59.80;47.73;;;4.60;99.90;;;5.26;78.76;99944.69;5186059;28;20600;-58
2022/03/19 03:59:41;;;;;;;61.13;46.00;;;4.60;99.90;;;5.24;79.02;99948.72;5187098;28;20232;-58
2022/03/19 04:02:14;;;;;;;66.10;48.00;;;4.70;99.90;;;5.26;78.63;99949.75;5185670;28;20295;-58
2022/03/19 04:04:47;;;;;;;63.17;48.27;;;4.70;99.90;;;5.26;78.47;99948.84;5186416;28;20650;-57
2022/03/19 04:07:21;;;;;;;61.40;46.07;;;4.70;99.90;;;5.21;78.61;99943.31;5183057;28;20215;-58
2022/03/19 04:09:54;;;;;;;57.23;45.40;;;4.70;99.90;;;5.21;78.48;99948.38;5184936;28;20226;-59
2022/03/19 04:12:29;;;;;;;60.37;46.43;;;4.70;99.90;;;5.28;78.28;99952.47;5186013;28;20644;-58
2022/03/19 04:15:02;;;;;;;60.37;45.60;;;4.70;99.90;;;5.18;78.38;99942.97;5188475;28;20208;-57
2022/03/19 04:17:35;;;;;;;59.93;45.90;;;4.70;99.90;;;5.21;78.77;99945.84;5184780;28;20209;-57
2022/03/19 04:20:10;;;;;;;57.20;46.10;;;4.70;99.90;;;5.14;78.41;99933.19;5183502;28;20336;-58
2022/03/19 04:22:44;;;;;;;59.50;46.07;;;4.60;99.90;;;5.13;78.16;99933.94;5186566;28;20303;-59
2022/03/19 04:25:19;;;;;;;55.67;45.43;;;4.60;99.90;;;5.20;77.98;99934.75;5185612;28;20211;-57
2022/03/19 04:27:56;;;;;;;60.90;46.47;;;4.60;99.90;;;5.01;78.29;99942.69;5187060;28;20233;-58
2022/03/19 04:30:30;;;;;;;61.43;46.63;;;4.50;99.90;;;5.17;77.99;99952.16;5186166;28;20202;-58
2022/03/19 04:33:04;;;;;;;60.30;46.17;;;4.60;99.90;;;5.13;77.90;99946.59;5185981;28;20204;-58
2022/03/19 04:38:28;;;;;;;56.97;45.20;;;4.60;99.90;;;4.92;78.79;99935.88;5186038;28;20225;-57
2022/03/19 04:41:01;;;;;;;59.57;46.57;;;4.50;99.90;;;4.97;78.44;99932.19;5185251;28;20338;-58
2022/03/19 04:43:36;;;;;;;58.93;46.93;;;4.50;99.90;;;5.02;78.46;99931.81;5182420;28;20358;-57
2022/03/19 04:46:09;;;;;;;59.10;45.30;;;4.50;99.90;;;5.10;77.61;99929.41;5185636;28;20197;-58
2022/03/19 04:48:45;;;;;;;61.27;47.03;;;4.60;99.90;;;4.88;78.29;99936.25;5185174;28;20750;-58
2022/03/19 04:51:21;;;;;;;59.07;46.40;;;4.40;99.90;;;4.93;78.15;99932.59;5183860;28;20205;-57
2022/03/19 04:53:54;;;;;;;59.30;48.00;;;4.50;99.90;;;4.80;78.59;99931.94;5184444;28;20186;-57
2022/03/19 04:56:29;;;;;;;57.40;45.00;;;4.40;99.90;;;4.93;78.31;99930.06;5184250;28;20205;-57
2022/03/19 04:59:04;;;;;;;66.07;47.70;;;4.50;99.90;;;4.85;79.59;99927.41;5183791;28;20226;-56
2022/03/19 05:01:37;;;;;;;59.23;46.23;;;4.40;99.90;;;4.78;79.46;99929.97;5186885;28;20242;-57
2022/03/19 05:04:10;;;;;;;57.53;45.83;;;4.40;99.90;;;4.73;79.18;99926.91;5192352;28;20227;-55
2022/03/19 05:06:43;;;;;;;60.83;46.53;;;4.30;99.90;;;4.90;78.51;99926.28;5195472;28;20199;-59
2022/03/19 05:12:08;;;;;;;60.53;45.57;;;4.30;99.90;;;4.76;78.51;99924.72;5191182;28;20657;-55
2022/03/19 05:14:43;;;;;;;59.67;46.97;;;4.30;99.90;;;4.67;78.65;99927.13;5190354;28;20198;-58
2022/03/19 05:17:16;;;;;;;59.23;46.73;;;4.30;99.90;;;4.75;78.81;99928.00;5176100;28;20646;-56
2022/03/19 05:19:49;;;;;;;57.40;46.33;;;4.30;99.90;;;4.71;78.62;99918.25;5180777;28;20600;-56
2022/03/19 05:22:22;;;;;;;62.33;46.30;;;4.20;99.90;;;4.71;78.49;99915.72;5184945;28;20223;-56
2022/03/19 05:24:56;;;;;;;65.80;47.20;;;4.20;99.90;;;4.76;78.97;99922.19;5183958;28;20203;-57
2022/03/19 05:27:29;;;;;;;58.23;45.40;;;4.20;99.90;;;4.77;79.52;99921.47;5184442;28;20570;-58
2022/03/19 05:30:05;;;;;;;62.10;47.43;;;4.30;99.90;;;4.88;78.73;99922.69;5185050;28;20222;-58
2022/03/19 05:32:39;;;;;;;60.97;45.60;;;4.30;99.90;;;4.94;78.70;99929.31;5183935;28;20209;-58
2022/03/19 05:35:12;;;;;;;62.23;46.90;;;4.40;99.90;;;4.93;78.31;99917.41;5186201;28;20204;-57
2022/03/19 05:37:46;;;;;;;63.37;47.00;;;4.40;99.90;;;4.93;77.43;99929.16;5186619;28;20202;-56
2022/03/19 05:40:20;;;;;;;61.30;46.73;;;4.30;99.90;;;4.90;77.17;99927.19;5183650;28;20234;-55
2022/03/19 05:42:53;;;;;;;58.40;45.67;;;4.30;99.90;;;4.85;78.22;99928.28;5186550;28;20236;-56
2022/03/19 05:45:27;;;;;;;62.37;46.60;;;4.30;99.90;;;4.95;76.74;99936.22;5184353;28;20200;-55
2022/03/19 05:48:01;;;;;;;61.60;46.63;;;4.40;99.90;;;4.97;77.09;99931.31;5186387;28;20688;-57
2022/03/19 05:50:36;;;;;;;60.90;46.47;;;4.40;99.90;;;4.86;78.41;99930.09;5189234;28;20206;-55
2022/03/19 05:53:09;;;;;;;63.40;46.50;;;4.40;99.90;;;4.77;78.57;99930.69;5185388;28;20595;-57
2022/03/19 05:55:42;;;;;;;61.77;46.57;;;4.30;99.90;;;5.03;77.25;99923.47;5181820;28;20202;-56
2022/03/19 05:58:15;;;;;;;59.87;47.20;;;4.40;99.90;;;5.03;76.67;99924.38;5185052;28;20203;-54
2022/03/19 06:00:49;;;;;;;60.50;46.80;;;4.50;99.90;;;4.87;77.87;99923.41;5184999;28;20217;-57
2022/03/19 06:03:22;;;;;;;63.17;47.60;;;4.40;99.90;;;4.81;77.66;99927.75;5182908;28;20255;-55
2022/03/19 06:05:56;;;;;;;56.87;44.70;;;4.30;99.90;;;5.03;76.93;99924.38;5192272;28;20201;-54
2022/03/19 06:08:29;;;;;;;59.67;44.70;;;4.50;99.90;;;5.19;75.57;99919.41;5184539;28;20243;-53
2022/03/19 06:11:02;;;;;;;60.10;45.07;;;4.60;99.90;;;5.13;75.93;99919.63;5186130;28;20297;-54
2022/03/19 06:13:36;;;;;;;59.90;47.20;;;4.60;99.90;;;5.04;76.24;99920.25;5179961;28;20562;-55
2022/03/19 06:16:11;;;;;;;60.50;46.40;;;4.60;99.90;;;5.00;76.35;99918.97;5184022;28;20198;-57
2022/03/19 06:18:46;;;;;;;59.33;46.53;;;4.50;99.90;;;5.11;76.11;99922.72;5185970;28;20704;-53
2022/03/19 06:21:23;;;;;;;58.77;46.00;;;4.60;99.90;;;5.24;75.53;99920.81;5187731;28;20205;-55
2022/03/19 06:23:56;;;;;;;58.73;45.67;;;4.70;99.90;;;5.30;75.51;99918.06;5184390;28;20225;-56
2022/03/19 06:26:29;;;;;;;60.00;44.50;;;4.80;99.90;;;5.38;74.91;99918.19;5182593;28;20206;-56
2022/03/19 06:29:02;;;;;;;52.07;42.00;;;4.90;99.90;;;5.76;73.01;99916.41;5182527;28;20231;-54
2022/03/19 06:31:36;;;;;;;56.43;43.77;;;5.20;99.90;;;6.01;72.45;99908.91;5182883;28;20195;-53
2022/03/19 06:34:09;;;;;;;53.73;43.57;;;5.40;99.90;;;6.09;71.96;99911.56;5183884;28;20281;-58
2022/03/19 06:39:33;;;;;;;56.00;44.13;;;5.60;99.90;;;6.37;70.28;99906.88;5181896;28;20230;-56
2022/03/19 06:42:07;;;;;;;52.60;40.60;;;5.80;99.90;;;6.75;68.77;99910.94;5182570;28;20221;-58
2022/03/19 06:44:40;;;;;;;53.40;42.43;;;6.10;99.90;;;7.02;67.02;99901.84;5182871;28;20219;-58
2022/03/19 06:47:14;;;;;;;51.37;40.37;;;6.40;99.90;;;7.06;66.78;99901.41;5182540;28;20679;-57
2022/03/19 06:49:47;;;;;;;53.60;41.47;;;6.40;99.90;;;7.28;65.26;99899.47;5184042;28;20218;-58
2022/03/19 06:52:21;;;;;;;52.53;41.47;;;6.60;99.90;;;7.39;65.12;99895.47;5184262;28;20226;-56
2022/03/19 06:54:54;;;;;;;46.57;40.77;;;6.70;99.90;;;7.66;63.92;99888.09;5182577;28;20210;-58
2022/03/19 06:57:27;;;;;;;51.23;41.53;;;6.70;99.90;;;7.82;63.09;99888.00;5179751;28;20229;-58
2022/03/19 07:00:00;;;;;;;45.87;40.17;;;7.00;99.90;;;7.71;63.37;99893.66;5182402;28;20595;-57
2022/03/19 07:02:46;;;;;;;46.90;39.13;;;7.00;99.90;;;7.82;63.04;99892.19;5183836;28;20217;-55
2022/03/19 07:05:20;;;;;;;49.37;39.97;;;6.90;99.90;;;8.21;62.08;99887.63;5184899;28;20644;-58
2022/03/19 07:07:56;;;;;;;46.93;39.10;;;7.20;99.90;;;8.45;60.57;99886.63;5188499;28;20209;-58
2022/03/19 07:10:29;;;;;;;44.47;37.67;;;7.40;99.90;;;8.37;60.80;99887.47;5180095;28;20230;-58
2022/03/19 07:13:05;;;;;;;49.73;39.90;;;7.50;99.90;;;8.15;61.12;99886.09;5184545;28;20208;-57
2022/03/19 07:15:40;;;;;;;49.90;40.13;;;7.40;99.90;;;8.06;61.09;99883.53;5186345;28;20187;-56
2022/03/19 07:18:14;;;;;;;47.30;38.27;;;7.40;99.90;;;7.85;62.39;99872.13;5183572;28;20212;-58
2022/03/19 07:20:47;;;;;;;52.20;40.47;;;7.40;99.90;;;7.63;63.22;99869.97;5184511;28;20545;-57
2022/03/19 07:23:20;;;;;;;50.13;41.17;;;7.20;99.90;;;7.87;61.90;99873.19;5182387;28;20232;-57
2022/03/19 07:25:54;;;;;;;49.63;40.57;;;7.30;99.90;;;7.80;62.80;99870.75;5187693;28;20225;-58
2022/03/19 07:28:27;;;;;;;48.93;39.97;;;7.40;99.90;;;8.00;61.47;99863.47;5188162;28;20321;-54
2022/03/19 07:31:01;;;;;;;45.83;37.77;;;7.50;99.90;;;7.77;61.22;99862.81;5192298;28;20199;-58
2022/03/19 07:33:35;;;;;;;46.67;37.83;;;7.40;99.90;;;7.66;62.17;99869.38;5191994;28;20206;-56
2022/03/19 07:36:08;;;;;;;48.67;38.63;;;7.40;99.90;;;7.58;62.44;99866.06;5191424;28;20208;-57
2022/03/19 07:38:41;;;;;;;46.27;37.30;;;7.20;99.90;;;7.90;60.42;99859.13;5187820;28;20226;-56
2022/03/19 07:44:06;;;;;;;44.73;37.67;;;7.70;99.90;;;8.30;58.74;99860.50;5183013;28;20702;-58
2022/03/19 07:46:41;;;;;;;44.43;38.17;;;7.90;99.90;;;8.31;58.44;99851.22;5187564;28;20214;-58
2022/03/19 07:49:16;;;;;;;42.50;36.30;;;8.00;99.40;;;8.40;58.13;99857.25;5179500;28;20226;-58
2022/03/19 07:51:55;;;;;;;43.60;36.63;;;8.10;99.40;;;8.33;56.81;99853.16;5181861;28;20206;-58
2022/03/19 07:54:28;;;;;;;41.50;35.37;;;8.00;98.50;;;8.52;56.77;99852.44;5183578;28;20201;-58
2022/03/19 07:57:01;;;;;;;38.73;34.30;;;8.10;98.50;;;8.32;55.96;99869.19;5186381;28;20293;-58
2022/03/19 07:59:34;;;;;;;41.17;35.03;;;8.10;97.70;;;8.26;56.21;99837.13;5184504;28;20226;-59
2022/03/19 08:02:08;;;;;;;40.37;34.50;;;8.00;98.00;;;8.31;55.67;99861.41;5187513;28;20210;-57
2022/03/19 08:04:42;;;;;;;39.70;33.90;;;8.00;97.50;;;8.22;56.61;99852.88;5184312;28;20221;-58
2022/03/19 08:07:15;;;;;;;41.30;33.03;;;8.00;97.90;;;8.43;56.02;99847.34;5187448;28;20210;-58
2022/03/19 08:09:48;;;;;;;40.93;33.70;;;8.20;97.70;;;8.48;54.82;99850.34;5186637;28;20710;-57
2022/03/19 08:12:22;;;;;;;37.07;32.70;;;8.30;96.50;;;8.67;55.38;99853.94;5187228;28;20209;-59
2022/03/19 08:14:55;;;;;;;39.13;32.43;;;8.40;97.30;;;9.09;54.05;99850.22;5183375;28;20203;-57
2022/03/19 08:17:28;;;;;;;38.63;33.70;;;8.90;96.70;;;9.09;53.94;99860.44;5182182;28;20210;-58
2022/03/19 08:20:06;;;;;;;38.23;32.07;;;8.90;96.00;;;9.03;52.52;99851.44;5183128;28;20226;-58
2022/03/19 08:22:39;;;;;;;38.23;33.47;;;8.80;95.30;;;9.03;53.02;99851.44;5181797;28;20297;-58
2022/03/19 08:25:12;;;;;;;39.10;32.23;;;8.70;95.40;;;9.02;52.96;99841.13;5182543;28;20222;-58
2022/03/19 08:27:46;;;;;;;36.17;32.23;;;8.80;95.60;;;8.95;53.70;99838.72;5184702;28;20249;-59
2022/03/19 08:30:20;;;;;;;36.80;32.03;;;8.70;95.70;;;9.22;52.70;99853.22;5183903;28;20226;-57
2022/03/19 08:32:53;;;;;;;34.60;31.00;;;9.00;95.30;;;9.50;53.29;99827.69;5183976;28;20224;-59
2022/03/19 08:35:27;;;;;;;39.47;33.97;;;9.30;95.60;;;9.34;50.79;99833.03;5184603;28;20209;-58
2022/03/19 08:40:51;;;;;;;37.07;33.00;;;9.10;95.00;;;9.37;52.00;99829.13;5184325;28;20285;-58
2022/03/19 08:43:24;;;;;;;37.47;33.20;;;9.20;94.80;;;9.39;52.34;99825.06;5184898;28;20619;-59
2022/03/19 08:45:58;;;;;;;40.53;34.23;;;9.20;95.00;;;9.36;51.96;99827.34;5185269;28;20214;-59
2022/03/19 08:48:32;;;;;;;38.83;34.10;;;9.20;94.50;;;9.38;52.89;99824.91;5186458;28;20237;-58
2022/03/19 08:54:11;;;;;;;40.37;34.27;;;9.40;94.40;;;9.37;52.01;99829.13;5127151;28;20203;-55
2022/03/19 08:56:47;;;;;;;39.63;33.47;;;9.30;94.50;;;9.40;52.48;99829.41;5173403;28;20670;-59
2022/03/19 08:59:21;;;;;;;39.33;32.97;;;9.30;94.50;;;9.63;51.60;99812.78;5188504;28;20597;-59
2022/03/19 09:01:54;;;;;;;38.63;33.20;;;9.50;94.40;;;9.85;50.96;99808.88;5187604;28;20293;-57
2022/03/19 09:04:28;;;;;;;37.77;33.47;;;9.70;93.80;;;9.81;50.30;99809.34;5187952;28;20907;-57
2022/03/19 09:07:02;;;;;;;37.20;33.10;;;9.70;93.70;;;9.90;50.48;99816.94;5188287;28;20199;-58
2022/03/19 09:09:36;;;;;;;37.53;33.53;;;9.90;93.30;;;9.82;49.22;99806.06;5188517;28;20280;-58
2022/03/19 09:12:29;;;;;;;37.67;33.07;;;9.80;92.90;;;9.78;50.37;99798.84;5184421;28;20210;-57
2022/03/19 09:15:03;;;;;;;37.60;33.23;;;9.60;93.20;;;9.63;49.75;99820.44;5185682;28;20505;-58
2022/03/19 09:17:36;;;;;;;38.90;32.87;;;9.60;92.70;;;9.60;49.92;99818.50;5188032;28;20199;-58
2022/03/19 09:20:11;;;;;;;36.07;32.10;;;9.60;92.90;;;9.38;50.02;99804.50;5187787;28;20218;-55
2022/03/19 09:22:45;;;;;;;37.87;33.80;;;9.30;93.00;;;9.57;50.28;99805.44;5183956;28;20197;-59
2022/03/19 09:25:18;;;;;;;39.67;33.80;;;9.60;92.90;;;9.46;51.24;99822.31;5182539;28;20234;-56
2022/03/19 09:27:51;;;;;;;39.47;34.70;;;9.50;93.00;;;9.38;50.72;99795.16;5186537;28;20198;-59
2022/03/19 09:30:24;;;;;;;36.73;32.73;;;9.30;93.50;;;9.78;50.94;99788.63;5182302;28;20739;-57
2022/03/19 09:32:57;;;;;;;39.03;33.77;;;9.60;93.40;;;9.76;51.19;99777.41;5185687;28;20195;-56
2022/03/19 09:35:49;;;;;;;41.93;36.00;;;9.70;93.50;;;9.64;50.36;99769.53;5185755;28;20213;-60
2022/03/19 09:38:24;;;;;;;39.77;35.47;;;9.70;92.70;;;9.84;49.98;99766.22;5188299;28;20222;-59
2022/03/19 09:40:58;;;;;;;40.63;36.20;;;9.80;92.80;;;9.78;51.23;99768.19;5186643;28;20198;-57
2022/03/19 09:43:31;;;;;;;43.67;37.17;;;9.80;93.00;;;9.90;50.52;99753.09;5184032;28;20198;-59
2022/03/19 09:46:05;;;;;;;42.17;35.73;;;9.80;93.30;;;9.87;51.30;99753.75;5186033;28;20222;-57
2022/03/19 09:48:38;;;;;;;40.57;36.10;;;9.80;93.30;;;10.05;50.61;99751.03;5184823;28;20256;-57
2022/03/19 09:51:12;;;;;;;42.73;36.40;;;10.00;92.90;;;10.24;49.88;99738.22;5182846;28;20218;-60
2022/03/19 09:53:50;;;;;;;44.47;37.80;;;10.20;93.00;;;10.55;50.32;99713.72;5186633;28;20211;-59
2022/03/19 09:56:37;;;;;;;43.33;37.30;;;10.50;93.40;;;10.62;49.93;99721.19;5184271;28;20202;-60
2022/03/19 09:59:10;;;;;;;42.83;37.10;;;10.40;92.90;;;10.54;48.88;99725.63;5186227;28;20225;-60
2022/03/19 10:01:43;;;;;;;40.20;35.85;;;10.50;92.70;;;10.70;49.72;99717.66;5184813;28;20214;-60
2022/03/19 10:04:20;;;;;;;39.60;34.10;;;10.50;92.60;;;10.88;48.88;99707.19;5187591;28;20256;-60
2022/03/19 10:10:02;;;;;;;38.10;32.72;;;10.70;92.00;;;10.79;48.82;99705.63;5123860;28;20227;-60
2022/03/19 10:12:36;;;;;;;37.95;33.85;;;10.60;92.00;;;10.84;47.66;99711.13;5120980;28;20204;-59
2022/03/19 10:15:10;;;;;;;40.00;33.20;;;10.70;91.70;;;11.04;48.53;99700.03;5154108;28;20203;-59
2022/03/19 10:17:43;;;;;;;39.60;34.70;;;10.90;91.80;;;10.88;47.71;99699.53;5180243;28;20202;-60
2022/03/19 10:20:17;;;;;;;38.15;33.83;;;10.80;91.60;;;11.02;46.93;99699.03;5183724;28;20697;-59
2022/03/19 10:22:50;;;;;;;38.50;31.88;;;10.90;91.10;;;11.04;47.03;99698.41;5182780;28;20195;-60
2022/03/19 10:25:25;;;;;;;38.75;34.00;;;10.90;91.20;;;11.08;48.35;99678.19;5185029;28;20224;-59
2022/03/19 10:28:03;;;;;;;39.38;32.65;;;10.90;91.60;;;11.09;47.65;99682.53;5189501;28;20198;-60
2022/03/19 10:30:38;;;;;;;37.50;32.05;;;10.90;91.50;;;11.41;47.44;99664.72;5184214;28;20199;-58
2022/03/19 10:33:12;;;;;;;33.40;29.15;;;11.20;91.60;;;11.47;45.25;99660.13;5184931;28;20584;-60
2022/03/19 10:35:45;;;;;;;30.27;27.02;;;11.30;90.10;;;11.60;44.65;99667.16;5183576;28;20194;-60
2022/03/19 10:38:20;;;;;;;24.92;22.40;;;11.40;89.50;;;11.63;42.96;99658.06;5182284;28;20438;-60
2022/03/19 10:40:55;;;;;;;22.00;19.80;;;11.50;86.50;;;11.36;41.32;99658.34;5182329;28;20209;-58
2022/03/19 10:43:28;;;;;;;22.58;18.70;;;11.30;82.80;;;11.51;41.11;99651.94;5183051;28;20206;-60
2022/03/19 10:46:04;;;;;;;24.00;21.45;;;11.40;83.40;;;11.65;42.44;99643.72;5182924;28;22220;-57
2022/03/19 10:48:38;;;;;;;22.48;19.70;;;11.40;85.30;;;11.60;41.91;99631.31;5181156;28;20269;-58
2022/03/19 10:51:12;;;;;;;23.45;20.17;;;11.30;84.40;;;11.69;42.12;99635.50;5180119;28;20206;-58
2022/03/19 10:53:45;;;;;;;22.55;19.85;;;11.50;84.50;;;11.56;41.90;99621.56;5176716;28;20194;-59
2022/03/19 10:56:21;;;;;;;20.48;17.88;;;11.50;83.80;;;11.57;41.18;99631.94;5180443;28;20199;-59
2022/03/19 10:59:06;;;;;;;22.33;19.10;;;11.40;82.60;;;11.65;41.10;99633.47;5179033;28;20252;-60
2022/03/19 11:01:40;;;;;;;22.27;18.30;;;11.50;82.60;;;11.58;40.82;99640.53;5177690;28;20203;-60
2022/03/19 11:04:13;;;;;;;23.35;19.80;;;11.50;82.40;;;11.71;41.31;99625.41;5179392;28;20377;-60
2022/03/19 11:06:47;;;;;;;24.00;20.13;;;11.50;83.20;;;11.60;41.49;99645.00;5177843;28;20234;-59